sensor_id;sensor_type;location;lat;lon;timestamp;P1;durP1;ratioP1;P2;durP2;ratioP2
71734;SDS011;59577;52.122;5.406;2023-08-06T00:00:53;6.07;;;4.17;;
71734;SDS011;59577;52.122;5.406;2023-08-06T00:03:20;6.60;;;4.10;;
71734;SDS011;59577;52.122;5.406;2023-08-06T00:05:47;6.82;;;3.88;;
71734;SDS011;59577;52.122;5.406;2023-08-06T00:08:13;5.18;;;3.88;;
71734;SDS011;59577;52.122;5.406;2023-08-06T00:10:40;5.88;;;4.25;;
71734;SDS011;59577;52.122;5.406;2023-08-06T00:13:07;7.07;;;4.40;;
71734;SDS011;59577;52.122;5.406;2023-08-06T00:15:34;4.40;;;3.70;;
71734;SDS011;59577;52.122;5.406;2023-08-06T00:18:00;4.32;;;3.92;;
71734;SDS011;59577;52.122;5.406;2023-08-06T00:20:27;7.05;;;3.83;;
71734;SDS011;59577;52.122;5.406;2023-08-06T00:22:54;4.10;;;3.60;;
71734;SDS011;59577;52.122;5.406;2023-08-06T00:25:20;5.53;;;3.90;;
71734;SDS011;59577;52.122;5.406;2023-08-06T00:27:46;4.60;;;3.58;;
71734;SDS011;59577;52.122;5.406;2023-08-06T00:30:13;5.20;;;3.80;;
71734;SDS011;59577;52.122;5.406;2023-08-06T00:32:40;7.72;;;4.15;;
71734;SDS011;59577;52.122;5.406;2023-08-06T00:35:06;4.85;;;3.40;;
71734;SDS011;59577;52.122;5.406;2023-08-06T00:37:33;5.50;;;4.03;;
71734;SDS011;59577;52.122;5.406;2023-08-06T00:40:00;4.57;;;3.85;;
71734;SDS011;59577;52.122;5.406;2023-08-06T00:42:26;4.25;;;3.70;;
71734;SDS011;59577;52.122;5.406;2023-08-06T00:44:53;5.95;;;4.10;;
71734;SDS011;59577;52.122;5.406;2023-08-06T00:47:19;4.82;;;3.50;;
71734;SDS011;59577;52.122;5.406;2023-08-06T00:49:46;5.27;;;3.63;;
71734;SDS011;59577;52.122;5.406;2023-08-06T00:52:13;5.38;;;4.05;;
71734;SDS011;59577;52.122;5.406;2023-08-06T00:54:40;5.43;;;3.95;;
71734;SDS011;59577;52.122;5.406;2023-08-06T00:57:07;4.38;;;3.58;;
71734;SDS011;59577;52.122;5.406;2023-08-06T00:59:35;6.50;;;4.15;;
71734;SDS011;59577;52.122;5.406;2023-08-06T01:02:02;5.57;;;4.00;;
71734;SDS011;59577;52.122;5.406;2023-08-06T01:04:29;9.27;;;3.90;;
71734;SDS011;59577;52.122;5.406;2023-08-06T01:07:05;8.65;;;4.28;;
71734;SDS011;59577;52.122;5.406;2023-08-06T01:15:37;7.40;;;5.00;;
71734;SDS011;59577;52.122;5.406;2023-08-06T01:18:13;5.65;;;3.97;;
71734;SDS011;59577;52.122;5.406;2023-08-06T01:20:40;5.03;;;4.53;;
71734;SDS011;59577;52.122;5.406;2023-08-06T01:23:06;5.63;;;4.15;;
71734;SDS011;59577;52.122;5.406;2023-08-06T01:25:33;8.25;;;4.00;;
71734;SDS011;59577;52.122;5.406;2023-08-06T01:28:04;5.10;;;4.00;;
71734;SDS011;59577;52.122;5.406;2023-08-06T01:30:37;5.07;;;4.53;;
71734;SDS011;59577;52.122;5.406;2023-08-06T01:33:07;7.57;;;4.25;;
71734;SDS011;59577;52.122;5.406;2023-08-06T01:35:40;6.55;;;4.63;;
71734;SDS011;59577;52.122;5.406;2023-08-06T01:38:09;9.95;;;4.60;;
71734;SDS011;59577;52.122;5.406;2023-08-06T01:40:35;5.70;;;4.37;;
71734;SDS011;59577;52.122;5.406;2023-08-06T01:43:02;7.00;;;4.70;;
71734;SDS011;59577;52.122;5.406;2023-08-06T01:45:28;11.98;;;4.25;;
71734;SDS011;59577;52.122;5.406;2023-08-06T01:47:55;5.57;;;4.55;;
71734;SDS011;59577;52.122;5.406;2023-08-06T01:50:22;7.78;;;4.85;;
71734;SDS011;59577;52.122;5.406;2023-08-06T01:52:48;5.53;;;3.93;;
71734;SDS011;59577;52.122;5.406;2023-08-06T01:55:15;6.10;;;4.30;;
71734;SDS011;59577;52.122;5.406;2023-08-06T01:57:41;6.22;;;4.25;;
71734;SDS011;59577;52.122;5.406;2023-08-06T02:00:08;8.27;;;5.30;;
71734;SDS011;59577;52.122;5.406;2023-08-06T02:02:35;6.40;;;4.68;;
71734;SDS011;59577;52.122;5.406;2023-08-06T02:05:02;9.17;;;4.73;;
71734;SDS011;59577;52.122;5.406;2023-08-06T02:07:29;8.10;;;4.88;;
71734;SDS011;59577;52.122;5.406;2023-08-06T02:09:55;7.88;;;5.18;;
71734;SDS011;59577;52.122;5.406;2023-08-06T02:12:22;6.50;;;5.05;;
71734;SDS011;59577;52.122;5.406;2023-08-06T02:14:48;9.07;;;5.25;;
71734;SDS011;59577;52.122;5.406;2023-08-06T02:17:15;8.53;;;5.10;;
71734;SDS011;59577;52.122;5.406;2023-08-06T02:19:41;9.65;;;5.28;;
71734;SDS011;59577;52.122;5.406;2023-08-06T02:22:09;9.45;;;5.30;;
71734;SDS011;59577;52.122;5.406;2023-08-06T02:24:35;9.50;;;5.97;;
71734;SDS011;59577;52.122;5.406;2023-08-06T02:27:02;12.48;;;6.13;;
71734;SDS011;59577;52.122;5.406;2023-08-06T02:29:29;9.63;;;6.20;;
71734;SDS011;59577;52.122;5.406;2023-08-06T02:31:55;8.55;;;6.82;;
71734;SDS011;59577;52.122;5.406;2023-08-06T02:34:22;11.55;;;6.90;;
71734;SDS011;59577;52.122;5.406;2023-08-06T02:36:49;13.18;;;7.53;;
71734;SDS011;59577;52.122;5.406;2023-08-06T02:39:15;10.95;;;6.47;;
71734;SDS011;59577;52.122;5.406;2023-08-06T02:41:42;9.40;;;6.77;;
71734;SDS011;59577;52.122;5.406;2023-08-06T02:44:08;8.73;;;5.97;;
71734;SDS011;59577;52.122;5.406;2023-08-06T02:46:35;10.30;;;6.53;;
71734;SDS011;59577;52.122;5.406;2023-08-06T02:49:01;11.75;;;7.15;;
71734;SDS011;59577;52.122;5.406;2023-08-06T02:51:28;14.75;;;7.07;;
71734;SDS011;59577;52.122;5.406;2023-08-06T02:53:54;8.70;;;5.63;;
71734;SDS011;59577;52.122;5.406;2023-08-06T02:56:21;9.23;;;5.78;;
71734;SDS011;59577;52.122;5.406;2023-08-06T02:58:47;9.25;;;6.78;;
71734;SDS011;59577;52.122;5.406;2023-08-06T03:01:14;9.23;;;6.40;;
71734;SDS011;59577;52.122;5.406;2023-08-06T03:03:41;10.43;;;6.43;;
71734;SDS011;59577;52.122;5.406;2023-08-06T03:06:07;9.03;;;4.93;;
71734;SDS011;59577;52.122;5.406;2023-08-06T03:08:34;13.55;;;6.68;;
71734;SDS011;59577;52.122;5.406;2023-08-06T03:11:01;8.43;;;5.20;;
71734;SDS011;59577;52.122;5.406;2023-08-06T03:13:27;9.73;;;5.68;;
71734;SDS011;59577;52.122;5.406;2023-08-06T03:15:55;8.35;;;5.18;;
71734;SDS011;59577;52.122;5.406;2023-08-06T03:18:23;10.37;;;5.90;;
71734;SDS011;59577;52.122;5.406;2023-08-06T03:20:49;8.27;;;5.38;;
71734;SDS011;59577;52.122;5.406;2023-08-06T03:23:16;7.25;;;4.47;;
71734;SDS011;59577;52.122;5.406;2023-08-06T03:25:43;6.25;;;4.65;;
71734;SDS011;59577;52.122;5.406;2023-08-06T03:28:09;8.55;;;4.50;;
71734;SDS011;59577;52.122;5.406;2023-08-06T03:30:36;5.70;;;5.10;;
71734;SDS011;59577;52.122;5.406;2023-08-06T03:33:03;6.18;;;4.30;;
71734;SDS011;59577;52.122;5.406;2023-08-06T03:35:29;7.80;;;4.85;;
71734;SDS011;59577;52.122;5.406;2023-08-06T03:37:56;7.90;;;5.30;;
71734;SDS011;59577;52.122;5.406;2023-08-06T03:40:22;7.95;;;4.80;;
71734;SDS011;59577;52.122;5.406;2023-08-06T03:42:49;8.83;;;5.13;;
71734;SDS011;59577;52.122;5.406;2023-08-06T03:45:16;6.45;;;5.00;;
71734;SDS011;59577;52.122;5.406;2023-08-06T03:47:42;8.48;;;5.75;;
71734;SDS011;59577;52.122;5.406;2023-08-06T03:50:09;7.40;;;5.75;;
71734;SDS011;59577;52.122;5.406;2023-08-06T03:52:36;7.13;;;5.03;;
71734;SDS011;59577;52.122;5.406;2023-08-06T03:55:02;8.00;;;5.20;;
71734;SDS011;59577;52.122;5.406;2023-08-06T03:57:29;9.68;;;5.75;;
71734;SDS011;59577;52.122;5.406;2023-08-06T03:59:56;7.53;;;5.43;;
71734;SDS011;59577;52.122;5.406;2023-08-06T04:02:22;7.57;;;5.78;;
71734;SDS011;59577;52.122;5.406;2023-08-06T04:04:49;7.63;;;6.03;;
71734;SDS011;59577;52.122;5.406;2023-08-06T04:07:15;9.27;;;6.57;;
71734;SDS011;59577;52.122;5.406;2023-08-06T04:10:03;11.40;;;6.10;;
71734;SDS011;59577;52.122;5.406;2023-08-06T04:12:30;9.25;;;5.88;;
71734;SDS011;59577;52.122;5.406;2023-08-06T04:14:59;5.32;;;4.63;;
71734;SDS011;59577;52.122;5.406;2023-08-06T04:17:26;6.32;;;5.53;;
71734;SDS011;59577;52.122;5.406;2023-08-06T04:19:53;10.47;;;6.37;;
71734;SDS011;59577;52.122;5.406;2023-08-06T04:22:21;8.93;;;6.72;;
71734;SDS011;59577;52.122;5.406;2023-08-06T04:24:48;10.55;;;7.32;;
71734;SDS011;59577;52.122;5.406;2023-08-06T04:27:14;7.45;;;5.93;;
71734;SDS011;59577;52.122;5.406;2023-08-06T04:29:42;7.35;;;5.55;;
71734;SDS011;59577;52.122;5.406;2023-08-06T04:32:09;7.17;;;5.70;;
71734;SDS011;59577;52.122;5.406;2023-08-06T04:34:36;8.80;;;6.35;;
71734;SDS011;59577;52.122;5.406;2023-08-06T04:37:03;9.63;;;6.90;;
71734;SDS011;59577;52.122;5.406;2023-08-06T04:39:30;8.32;;;6.38;;
71734;SDS011;59577;52.122;5.406;2023-08-06T04:41:57;12.63;;;6.85;;
71734;SDS011;59577;52.122;5.406;2023-08-06T04:44:24;9.13;;;6.30;;
71734;SDS011;59577;52.122;5.406;2023-08-06T04:46:50;7.78;;;6.25;;
71734;SDS011;59577;52.122;5.406;2023-08-06T04:49:17;8.10;;;6.43;;
71734;SDS011;59577;52.122;5.406;2023-08-06T04:51:44;11.15;;;6.53;;
71734;SDS011;59577;52.122;5.406;2023-08-06T04:54:11;12.35;;;7.70;;
71734;SDS011;59577;52.122;5.406;2023-08-06T04:56:38;12.23;;;7.10;;
71734;SDS011;59577;52.122;5.406;2023-08-06T04:59:04;10.52;;;7.63;;
71734;SDS011;59577;52.122;5.406;2023-08-06T05:01:31;10.50;;;7.00;;
71734;SDS011;59577;52.122;5.406;2023-08-06T05:03:57;9.55;;;7.18;;
71734;SDS011;59577;52.122;5.406;2023-08-06T05:06:24;11.25;;;8.18;;
71734;SDS011;59577;52.122;5.406;2023-08-06T05:08:50;7.83;;;5.80;;
71734;SDS011;59577;52.122;5.406;2023-08-06T05:11:17;8.55;;;6.22;;
71734;SDS011;59577;52.122;5.406;2023-08-06T05:13:43;9.55;;;6.63;;
71734;SDS011;59577;52.122;5.406;2023-08-06T05:16:10;13.00;;;8.32;;
71734;SDS011;59577;52.122;5.406;2023-08-06T05:18:36;8.23;;;7.35;;
71734;SDS011;59577;52.122;5.406;2023-08-06T05:21:04;12.43;;;7.97;;
71734;SDS011;59577;52.122;5.406;2023-08-06T05:23:30;10.48;;;8.02;;
71734;SDS011;59577;52.122;5.406;2023-08-06T05:25:57;11.10;;;8.20;;
71734;SDS011;59577;52.122;5.406;2023-08-06T05:28:23;11.00;;;8.68;;
71734;SDS011;59577;52.122;5.406;2023-08-06T05:30:50;12.73;;;9.30;;
71734;SDS011;59577;52.122;5.406;2023-08-06T05:33:16;13.07;;;8.03;;
71734;SDS011;59577;52.122;5.406;2023-08-06T05:35:43;12.48;;;8.70;;
71734;SDS011;59577;52.122;5.406;2023-08-06T05:38:09;9.85;;;8.15;;
71734;SDS011;59577;52.122;5.406;2023-08-06T05:40:37;12.05;;;8.50;;
71734;SDS011;59577;52.122;5.406;2023-08-06T05:43:03;11.38;;;7.80;;
71734;SDS011;59577;52.122;5.406;2023-08-06T05:45:30;12.47;;;8.03;;
71734;SDS011;59577;52.122;5.406;2023-08-06T05:47:56;11.93;;;8.43;;
71734;SDS011;59577;52.122;5.406;2023-08-06T05:50:24;13.75;;;8.55;;
71734;SDS011;59577;52.122;5.406;2023-08-06T05:52:51;10.77;;;7.93;;
71734;SDS011;59577;52.122;5.406;2023-08-06T05:55:20;13.70;;;9.05;;
71734;SDS011;59577;52.122;5.406;2023-08-06T05:57:46;15.20;;;9.90;;
71734;SDS011;59577;52.122;5.406;2023-08-06T06:00:13;15.38;;;9.35;;
71734;SDS011;59577;52.122;5.406;2023-08-06T06:02:40;15.65;;;8.90;;
71734;SDS011;59577;52.122;5.406;2023-08-06T06:05:06;10.40;;;8.35;;
71734;SDS011;59577;52.122;5.406;2023-08-06T06:07:33;11.15;;;8.30;;
71734;SDS011;59577;52.122;5.406;2023-08-06T06:10:00;13.63;;;8.27;;
71734;SDS011;59577;52.122;5.406;2023-08-06T06:12:27;11.00;;;7.50;;
71734;SDS011;59577;52.122;5.406;2023-08-06T06:14:53;12.32;;;8.07;;
71734;SDS011;59577;52.122;5.406;2023-08-06T06:17:20;10.80;;;7.85;;
71734;SDS011;59577;52.122;5.406;2023-08-06T06:19:46;12.68;;;8.75;;
71734;SDS011;59577;52.122;5.406;2023-08-06T06:22:13;12.23;;;8.47;;
71734;SDS011;59577;52.122;5.406;2023-08-06T06:24:40;10.63;;;7.32;;
71734;SDS011;59577;52.122;5.406;2023-08-06T06:27:06;10.73;;;8.40;;
71734;SDS011;59577;52.122;5.406;2023-08-06T06:29:33;14.40;;;8.77;;
71734;SDS011;59577;52.122;5.406;2023-08-06T06:31:59;11.50;;;8.60;;
71734;SDS011;59577;52.122;5.406;2023-08-06T06:34:26;10.87;;;7.80;;
71734;SDS011;59577;52.122;5.406;2023-08-06T06:36:52;13.57;;;8.93;;
71734;SDS011;59577;52.122;5.406;2023-08-06T06:39:20;12.88;;;8.65;;
71734;SDS011;59577;52.122;5.406;2023-08-06T06:41:47;11.05;;;8.02;;
71734;SDS011;59577;52.122;5.406;2023-08-06T06:44:14;11.55;;;8.63;;
71734;SDS011;59577;52.122;5.406;2023-08-06T06:46:41;13.40;;;9.07;;
71734;SDS011;59577;52.122;5.406;2023-08-06T06:49:07;13.95;;;8.50;;
71734;SDS011;59577;52.122;5.406;2023-08-06T06:51:34;12.27;;;8.10;;
71734;SDS011;59577;52.122;5.406;2023-08-06T06:54:02;10.95;;;8.00;;
71734;SDS011;59577;52.122;5.406;2023-08-06T06:56:28;10.32;;;8.02;;
71734;SDS011;59577;52.122;5.406;2023-08-06T06:58:55;10.10;;;7.93;;
71734;SDS011;59577;52.122;5.406;2023-08-06T07:01:21;10.45;;;7.72;;
71734;SDS011;59577;52.122;5.406;2023-08-06T07:03:48;10.10;;;8.48;;
71734;SDS011;59577;52.122;5.406;2023-08-06T07:06:15;11.25;;;7.97;;
71734;SDS011;59577;52.122;5.406;2023-08-06T07:08:42;11.93;;;7.70;;
71734;SDS011;59577;52.122;5.406;2023-08-06T07:11:08;8.73;;;7.13;;
71734;SDS011;59577;52.122;5.406;2023-08-06T07:13:35;13.98;;;7.30;;
71734;SDS011;59577;52.122;5.406;2023-08-06T07:16:02;10.65;;;7.53;;
71734;SDS011;59577;52.122;5.406;2023-08-06T07:18:28;11.98;;;7.63;;
71734;SDS011;59577;52.122;5.406;2023-08-06T07:20:55;11.55;;;8.23;;
71734;SDS011;59577;52.122;5.406;2023-08-06T07:23:23;10.20;;;7.90;;
71734;SDS011;59577;52.122;5.406;2023-08-06T07:25:51;10.57;;;7.07;;
71734;SDS011;59577;52.122;5.406;2023-08-06T07:28:18;9.82;;;7.35;;
71734;SDS011;59577;52.122;5.406;2023-08-06T07:30:45;10.40;;;8.25;;
71734;SDS011;59577;52.122;5.406;2023-08-06T07:33:12;12.15;;;8.60;;
71734;SDS011;59577;52.122;5.406;2023-08-06T07:35:39;10.90;;;8.20;;
71734;SDS011;59577;52.122;5.406;2023-08-06T07:38:05;11.30;;;7.97;;
71734;SDS011;59577;52.122;5.406;2023-08-06T07:40:32;14.00;;;7.70;;
71734;SDS011;59577;52.122;5.406;2023-08-06T07:42:59;14.52;;;8.98;;
71734;SDS011;59577;52.122;5.406;2023-08-06T07:45:25;10.45;;;8.45;;
71734;SDS011;59577;52.122;5.406;2023-08-06T07:47:53;12.90;;;8.50;;
71734;SDS011;59577;52.122;5.406;2023-08-06T07:50:20;20.38;;;8.98;;
71734;SDS011;59577;52.122;5.406;2023-08-06T07:52:46;11.88;;;7.75;;
71734;SDS011;59577;52.122;5.406;2023-08-06T07:55:13;11.52;;;8.38;;
71734;SDS011;59577;52.122;5.406;2023-08-06T07:57:40;8.07;;;5.72;;
71734;SDS011;59577;52.122;5.406;2023-08-06T08:00:06;6.67;;;5.17;;
71734;SDS011;59577;52.122;5.406;2023-08-06T08:02:34;4.07;;;3.40;;
71734;SDS011;59577;52.122;5.406;2023-08-06T08:05:00;3.13;;;2.80;;
71734;SDS011;59577;52.122;5.406;2023-08-06T08:07:27;4.03;;;2.72;;
71734;SDS011;59577;52.122;5.406;2023-08-06T08:09:56;2.55;;;1.73;;
71734;SDS011;59577;52.122;5.406;2023-08-06T08:12:23;1.40;;;1.27;;
71734;SDS011;59577;52.122;5.406;2023-08-06T08:14:49;1.63;;;1.30;;
71734;SDS011;59577;52.122;5.406;2023-08-06T08:17:16;2.35;;;1.20;;
71734;SDS011;59577;52.122;5.406;2023-08-06T08:19:43;1.25;;;0.80;;
71734;SDS011;59577;52.122;5.406;2023-08-06T08:22:09;1.15;;;0.80;;
71734;SDS011;59577;52.122;5.406;2023-08-06T08:24:36;1.00;;;0.90;;
71734;SDS011;59577;52.122;5.406;2023-08-06T08:27:03;2.70;;;1.50;;
71734;SDS011;59577;52.122;5.406;2023-08-06T08:29:30;2.38;;;0.90;;
71734;SDS011;59577;52.122;5.406;2023-08-06T08:31:57;1.05;;;0.80;;
71734;SDS011;59577;52.122;5.406;2023-08-06T08:34:23;1.65;;;0.88;;
71734;SDS011;59577;52.122;5.406;2023-08-06T08:36:50;1.10;;;0.67;;
71734;SDS011;59577;52.122;5.406;2023-08-06T08:39:17;0.95;;;0.57;;
71734;SDS011;59577;52.122;5.406;2023-08-06T08:41:43;1.00;;;0.75;;
71734;SDS011;59577;52.122;5.406;2023-08-06T08:44:10;1.33;;;0.77;;
71734;SDS011;59577;52.122;5.406;2023-08-06T08:46:40;0.80;;;0.63;;
71734;SDS011;59577;52.122;5.406;2023-08-06T08:49:07;1.10;;;0.77;;
71734;SDS011;59577;52.122;5.406;2023-08-06T08:51:34;3.80;;;0.80;;
71734;SDS011;59577;52.122;5.406;2023-08-06T08:54:02;1.88;;;0.60;;
71734;SDS011;59577;52.122;5.406;2023-08-06T08:56:30;4.53;;;1.75;;
71734;SDS011;59577;52.122;5.406;2023-08-06T08:58:57;2.05;;;0.88;;
71734;SDS011;59577;52.122;5.406;2023-08-06T09:01:25;1.17;;;0.87;;
71734;SDS011;59577;52.122;5.406;2023-08-06T09:03:53;1.00;;;0.57;;
71734;SDS011;59577;52.122;5.406;2023-08-06T09:06:21;1.20;;;0.90;;
71734;SDS011;59577;52.122;5.406;2023-08-06T09:09:01;3.50;;;0.75;;
71734;SDS011;59577;52.122;5.406;2023-08-06T09:11:33;1.25;;;0.90;;
71734;SDS011;59577;52.122;5.406;2023-08-06T09:14:07;1.33;;;0.90;;
71734;SDS011;59577;52.122;5.406;2023-08-06T09:16:37;1.40;;;1.00;;
71734;SDS011;59577;52.122;5.406;2023-08-06T09:19:11;1.52;;;1.17;;
71734;SDS011;59577;52.122;5.406;2023-08-06T09:21:45;2.78;;;1.23;;
71734;SDS011;59577;52.122;5.406;2023-08-06T09:24:15;2.15;;;1.10;;
71734;SDS011;59577;52.122;5.406;2023-08-06T09:26:43;5.03;;;1.00;;
71734;SDS011;59577;52.122;5.406;2023-08-06T09:29:11;1.73;;;1.25;;
71734;SDS011;59577;52.122;5.406;2023-08-06T09:31:45;2.55;;;1.13;;
71734;SDS011;59577;52.122;5.406;2023-08-06T09:34:16;1.40;;;1.10;;
71734;SDS011;59577;52.122;5.406;2023-08-06T09:37:02;1.40;;;1.20;;
71734;SDS011;59577;52.122;5.406;2023-08-06T09:39:30;3.00;;;1.30;;
71734;SDS011;59577;52.122;5.406;2023-08-06T09:41:57;2.40;;;1.20;;
71734;SDS011;59577;52.122;5.406;2023-08-06T09:44:26;2.20;;;1.67;;
71734;SDS011;59577;52.122;5.406;2023-08-06T09:46:56;2.95;;;1.45;;
71734;SDS011;59577;52.122;5.406;2023-08-06T09:52:00;2.30;;;1.50;;
71734;SDS011;59577;52.122;5.406;2023-08-06T09:54:27;3.67;;;1.67;;
71734;SDS011;59577;52.122;5.406;2023-08-06T09:56:55;3.42;;;1.67;;
71734;SDS011;59577;52.122;5.406;2023-08-06T09:59:23;2.50;;;1.73;;
71734;SDS011;59577;52.122;5.406;2023-08-06T10:01:50;2.20;;;2.00;;
71734;SDS011;59577;52.122;5.406;2023-08-06T10:04:19;3.77;;;2.03;;
71734;SDS011;59577;52.122;5.406;2023-08-06T10:06:51;2.53;;;2.10;;
71734;SDS011;59577;52.122;5.406;2023-08-06T10:09:19;2.20;;;1.70;;
71734;SDS011;59577;52.122;5.406;2023-08-06T10:11:48;3.38;;;1.90;;
71734;SDS011;59577;52.122;5.406;2023-08-06T10:14:27;2.97;;;2.00;;
71734;SDS011;59577;52.122;5.406;2023-08-06T10:16:57;3.33;;;1.63;;
71734;SDS011;59577;52.122;5.406;2023-08-06T10:19:25;2.28;;;1.88;;
71734;SDS011;59577;52.122;5.406;2023-08-06T10:22:12;2.70;;;1.88;;
71734;SDS011;59577;52.122;5.406;2023-08-06T10:27:28;2.58;;;2.00;;
71734;SDS011;59577;52.122;5.406;2023-08-06T10:32:52;11.73;;;2.33;;
71734;SDS011;59577;52.122;5.406;2023-08-06T10:35:36;2.83;;;1.83;;
71734;SDS011;59577;52.122;5.406;2023-08-06T10:38:25;2.25;;;1.63;;
71734;SDS011;59577;52.122;5.406;2023-08-06T10:43:35;4.13;;;2.10;;
71734;SDS011;59577;52.122;5.406;2023-08-06T10:46:09;2.47;;;1.67;;
71734;SDS011;59577;52.122;5.406;2023-08-06T10:48:40;4.45;;;1.98;;
71734;SDS011;59577;52.122;5.406;2023-08-06T10:51:11;2.83;;;1.80;;
71734;SDS011;59577;52.122;5.406;2023-08-06T10:53:46;4.93;;;2.05;;
71734;SDS011;59577;52.122;5.406;2023-08-06T10:56:17;2.37;;;1.50;;
71734;SDS011;59577;52.122;5.406;2023-08-06T10:58:45;3.70;;;1.55;;
71734;SDS011;59577;52.122;5.406;2023-08-06T11:01:13;2.65;;;1.58;;
71734;SDS011;59577;52.122;5.406;2023-08-06T11:03:40;8.27;;;1.45;;
71734;SDS011;59577;52.122;5.406;2023-08-06T11:06:08;3.95;;;1.73;;
71734;SDS011;59577;52.122;5.406;2023-08-06T11:08:36;3.13;;;1.37;;
71734;SDS011;59577;52.122;5.406;2023-08-06T11:11:10;4.15;;;1.30;;
71734;SDS011;59577;52.122;5.406;2023-08-06T11:13:43;2.00;;;1.30;;
71734;SDS011;59577;52.122;5.406;2023-08-06T11:16:16;3.63;;;1.33;;
71734;SDS011;59577;52.122;5.406;2023-08-06T11:18:45;4.95;;;1.50;;
71734;SDS011;59577;52.122;5.406;2023-08-06T11:21:12;1.90;;;1.10;;
71734;SDS011;59577;52.122;5.406;2023-08-06T11:23:40;2.70;;;1.20;;
71734;SDS011;59577;52.122;5.406;2023-08-06T11:26:07;3.65;;;1.30;;
71734;SDS011;59577;52.122;5.406;2023-08-06T11:28:33;3.53;;;0.93;;
71734;SDS011;59577;52.122;5.406;2023-08-06T11:31:00;3.85;;;1.20;;
71734;SDS011;59577;52.122;5.406;2023-08-06T11:33:28;12.90;;;1.63;;
71734;SDS011;59577;52.122;5.406;2023-08-06T11:35:56;5.40;;;1.40;;
71734;SDS011;59577;52.122;5.406;2023-08-06T11:38:30;3.15;;;0.90;;
71734;SDS011;59577;52.122;5.406;2023-08-06T11:40:57;8.38;;;1.17;;
71734;SDS011;59577;52.122;5.406;2023-08-06T11:43:24;4.88;;;1.20;;
71734;SDS011;59577;52.122;5.406;2023-08-06T11:45:50;1.97;;;0.70;;
71734;SDS011;59577;52.122;5.406;2023-08-06T11:48:20;6.30;;;1.15;;
71734;SDS011;59577;52.122;5.406;2023-08-06T11:50:46;7.00;;;1.30;;
71734;SDS011;59577;52.122;5.406;2023-08-06T11:53:13;24.65;;;1.90;;
71734;SDS011;59577;52.122;5.406;2023-08-06T11:55:41;5.38;;;1.60;;
71734;SDS011;59577;52.122;5.406;2023-08-06T11:58:09;19.10;;;1.37;;
71734;SDS011;59577;52.122;5.406;2023-08-06T12:00:41;9.88;;;1.60;;
71734;SDS011;59577;52.122;5.406;2023-08-06T12:03:09;16.58;;;1.48;;
71734;SDS011;59577;52.122;5.406;2023-08-06T12:05:37;17.38;;;1.25;;
71734;SDS011;59577;52.122;5.406;2023-08-06T12:08:05;6.55;;;1.20;;
71734;SDS011;59577;52.122;5.406;2023-08-06T12:10:32;6.10;;;1.00;;
71734;SDS011;59577;52.122;5.406;2023-08-06T12:12:59;6.03;;;1.02;;
71734;SDS011;59577;52.122;5.406;2023-08-06T12:15:26;7.80;;;0.85;;
71734;SDS011;59577;52.122;5.406;2023-08-06T12:17:52;6.70;;;0.60;;
71734;SDS011;59577;52.122;5.406;2023-08-06T12:20:19;7.20;;;0.85;;
71734;SDS011;59577;52.122;5.406;2023-08-06T12:22:45;4.47;;;0.77;;
71734;SDS011;59577;52.122;5.406;2023-08-06T12:25:13;14.07;;;0.90;;
71734;SDS011;59577;52.122;5.406;2023-08-06T12:27:40;23.55;;;1.20;;
71734;SDS011;59577;52.122;5.406;2023-08-06T12:30:08;15.85;;;1.60;;
71734;SDS011;59577;52.122;5.406;2023-08-06T12:32:36;6.10;;;0.73;;
71734;SDS011;59577;52.122;5.406;2023-08-06T12:35:03;5.97;;;0.53;;
71734;SDS011;59577;52.122;5.406;2023-08-06T12:37:31;11.50;;;0.80;;
71734;SDS011;59577;52.122;5.406;2023-08-06T12:39:57;8.50;;;0.52;;
71734;SDS011;59577;52.122;5.406;2023-08-06T12:42:24;23.33;;;1.52;;
71734;SDS011;59577;52.122;5.406;2023-08-06T12:44:51;6.68;;;0.75;;
71734;SDS011;59577;52.122;5.406;2023-08-06T12:47:18;6.60;;;0.53;;
71734;SDS011;59577;52.122;5.406;2023-08-06T12:49:46;5.20;;;0.63;;
71734;SDS011;59577;52.122;5.406;2023-08-06T12:52:13;6.97;;;0.70;;
71734;SDS011;59577;52.122;5.406;2023-08-06T12:54:41;4.13;;;0.47;;
71734;SDS011;59577;52.122;5.406;2023-08-06T12:57:08;8.15;;;0.93;;
71734;SDS011;59577;52.122;5.406;2023-08-06T12:59:35;9.97;;;1.20;;
71734;SDS011;59577;52.122;5.406;2023-08-06T13:02:03;6.70;;;0.60;;
71734;SDS011;59577;52.122;5.406;2023-08-06T13:04:30;19.60;;;0.82;;
71734;SDS011;59577;52.122;5.406;2023-08-06T13:06:58;3.08;;;0.80;;
71734;SDS011;59577;52.122;5.406;2023-08-06T13:09:24;4.65;;;0.60;;
71734;SDS011;59577;52.122;5.406;2023-08-06T13:11:52;7.23;;;0.90;;
71734;SDS011;59577;52.122;5.406;2023-08-06T13:14:19;2.58;;;0.68;;
71734;SDS011;59577;52.122;5.406;2023-08-06T13:16:46;2.03;;;0.52;;
71734;SDS011;59577;52.122;5.406;2023-08-06T13:19:12;4.03;;;0.70;;
71734;SDS011;59577;52.122;5.406;2023-08-06T13:24:06;2.60;;;0.60;;
71734;SDS011;59577;52.122;5.406;2023-08-06T13:26:33;1.65;;;0.47;;
71734;SDS011;59577;52.122;5.406;2023-08-06T13:29:00;3.35;;;0.70;;
71734;SDS011;59577;52.122;5.406;2023-08-06T13:31:28;2.00;;;0.65;;
71734;SDS011;59577;52.122;5.406;2023-08-06T13:33:55;2.95;;;0.40;;
71734;SDS011;59577;52.122;5.406;2023-08-06T13:36:27;2.30;;;0.87;;
71734;SDS011;59577;52.122;5.406;2023-08-06T13:38:55;1.92;;;0.50;;
71734;SDS011;59577;52.122;5.406;2023-08-06T13:41:22;0.98;;;0.52;;
71734;SDS011;59577;52.122;5.406;2023-08-06T13:43:49;1.63;;;0.52;;
71734;SDS011;59577;52.122;5.406;2023-08-06T13:46:17;2.42;;;0.60;;
71734;SDS011;59577;52.122;5.406;2023-08-06T13:48:47;2.13;;;0.70;;
71734;SDS011;59577;52.122;5.406;2023-08-06T13:51:17;2.92;;;0.70;;
71734;SDS011;59577;52.122;5.406;2023-08-06T13:53:45;1.40;;;0.60;;
71734;SDS011;59577;52.122;5.406;2023-08-06T13:56:11;3.05;;;0.60;;
71734;SDS011;59577;52.122;5.406;2023-08-06T13:58:38;1.17;;;0.70;;
71734;SDS011;59577;52.122;5.406;2023-08-06T14:01:05;7.43;;;0.90;;
71734;SDS011;59577;52.122;5.406;2023-08-06T14:03:33;3.60;;;0.60;;
71734;SDS011;59577;52.122;5.406;2023-08-06T14:06:00;1.27;;;0.55;;
71734;SDS011;59577;52.122;5.406;2023-08-06T14:08:27;4.25;;;0.75;;
71734;SDS011;59577;52.122;5.406;2023-08-06T14:10:54;6.20;;;0.63;;
71734;SDS011;59577;52.122;5.406;2023-08-06T14:13:21;1.20;;;0.53;;
71734;SDS011;59577;52.122;5.406;2023-08-06T14:15:48;1.60;;;0.70;;
71734;SDS011;59577;52.122;5.406;2023-08-06T14:18:15;1.60;;;0.50;;
71734;SDS011;59577;52.122;5.406;2023-08-06T14:20:43;1.05;;;0.40;;
71734;SDS011;59577;52.122;5.406;2023-08-06T14:23:10;1.83;;;0.60;;
71734;SDS011;59577;52.122;5.406;2023-08-06T14:25:37;2.87;;;0.50;;
71734;SDS011;59577;52.122;5.406;2023-08-06T14:28:04;4.65;;;0.70;;
71734;SDS011;59577;52.122;5.406;2023-08-06T14:30:33;1.38;;;0.57;;
71734;SDS011;59577;52.122;5.406;2023-08-06T14:33:00;3.17;;;0.68;;
71734;SDS011;59577;52.122;5.406;2023-08-06T14:35:46;1.90;;;0.60;;
71734;SDS011;59577;52.122;5.406;2023-08-06T14:38:13;4.90;;;0.90;;
71734;SDS011;59577;52.122;5.406;2023-08-06T14:40:39;2.97;;;0.50;;
71734;SDS011;59577;52.122;5.406;2023-08-06T14:43:06;2.78;;;0.75;;
71734;SDS011;59577;52.122;5.406;2023-08-06T14:45:33;3.35;;;0.65;;
71734;SDS011;59577;52.122;5.406;2023-08-06T14:48:03;1.83;;;0.65;;
71734;SDS011;59577;52.122;5.406;2023-08-06T14:50:30;1.93;;;0.40;;
71734;SDS011;59577;52.122;5.406;2023-08-06T14:52:56;2.30;;;0.80;;
71734;SDS011;59577;52.122;5.406;2023-08-06T14:55:24;2.00;;;0.70;;
71734;SDS011;59577;52.122;5.406;2023-08-06T14:57:51;1.77;;;0.50;;
71734;SDS011;59577;52.122;5.406;2023-08-06T15:00:18;3.80;;;0.70;;
71734;SDS011;59577;52.122;5.406;2023-08-06T15:02:45;1.57;;;0.50;;
71734;SDS011;59577;52.122;5.406;2023-08-06T15:05:12;1.70;;;0.60;;